createdAt,value
2023-04-28T00:04:27.498Z,11.35
2023-04-28T00:09:19.340Z,10.82
2023-04-28T00:14:11.194Z,11.77
2023-04-28T00:19:02.817Z,10.75
2023-04-28T00:23:54.656Z,12.23
2023-04-28T00:28:46.331Z,12.30
2023-04-28T00:33:41.598Z,13.13
2023-04-28T00:38:33.246Z,11.63
2023-04-28T00:43:25.012Z,12.13
2023-04-28T00:48:17.102Z,10.23
2023-04-28T00:53:08.748Z,9.85
2023-04-28T00:58:00.730Z,9.43
2023-04-28T01:02:53.750Z,8.95
2023-04-28T01:07:45.551Z,9.82
2023-04-28T01:12:37.501Z,9.90
2023-04-28T01:17:29.237Z,9.82
2023-04-28T01:22:20.800Z,10.52
2023-04-28T01:27:12.436Z,11.38
2023-04-28T01:32:04.448Z,11.55
2023-04-28T01:36:56.456Z,10.40
2023-04-28T01:41:48.062Z,10.80
2023-04-28T01:46:39.781Z,11.50
2023-04-28T01:51:32.770Z,11.23
2023-04-28T01:56:24.412Z,10.88
2023-04-28T02:01:16.151Z,10.25
2023-04-28T02:06:07.995Z,9.73
2023-04-28T02:11:01.591Z,10.57
2023-04-28T02:15:53.250Z,9.10
2023-04-28T02:20:44.880Z,9.57
2023-04-28T02:25:36.450Z,10.15
2023-04-28T02:30:28.047Z,7.93
2023-04-28T02:35:19.650Z,7.80
2023-04-28T02:40:11.653Z,6.95
2023-04-28T02:45:03.303Z,7.50
2023-04-28T02:49:54.833Z,6.90
2023-04-28T02:54:49.079Z,7.80
2023-04-28T02:59:40.970Z,7.80
2023-04-28T03:04:32.645Z,6.78
2023-04-28T03:09:24.288Z,7.40
2023-04-28T03:14:16.043Z,7.50
2023-04-28T03:19:07.874Z,7.03
2023-04-28T03:23:59.484Z,7.25
2023-04-28T03:28:51.075Z,7.03
2023-04-28T03:33:45.537Z,8.18
2023-04-28T03:38:37.344Z,7.35
2023-04-28T03:43:28.958Z,8.10
2023-04-28T03:48:21.096Z,8.35
2023-04-28T03:53:12.777Z,6.78
2023-04-28T03:58:04.405Z,7.35
2023-04-28T04:02:56.290Z,8.27
2023-04-28T04:07:48.015Z,7.45
2023-04-28T04:12:39.616Z,7.03
2023-04-28T04:17:31.681Z,7.85
2023-04-28T04:22:23.373Z,8.02
2023-04-28T04:27:15.002Z,8.20
2023-04-28T04:32:06.713Z,7.20
2023-04-28T04:36:58.296Z,8.15
2023-04-28T04:41:49.974Z,8.45
2023-04-28T04:46:41.898Z,8.75
2023-04-28T04:51:33.574Z,9.02
2023-04-28T04:56:25.264Z,7.97
2023-04-28T05:01:16.826Z,10.27
2023-04-28T05:06:08.415Z,9.88
2023-04-28T05:11:00.021Z,8.85
2023-04-28T05:15:51.650Z,9.18
2023-04-28T05:20:43.218Z,9.43
2023-04-28T05:25:34.853Z,9.07
2023-04-28T05:30:26.434Z,10.75
2023-04-28T05:35:18.049Z,8.80
2023-04-28T05:40:10.009Z,9.18
2023-04-28T05:45:02.737Z,9.05
2023-04-28T05:49:54.277Z,9.40
2023-04-28T05:54:46.032Z,9.30
2023-04-28T05:59:37.663Z,10.38
2023-04-28T06:04:29.478Z,9.48
2023-04-28T06:09:21.534Z,9.10
2023-04-28T06:14:13.160Z,8.65
2023-04-28T06:19:04.812Z,7.95
2023-04-28T06:23:56.397Z,9.52
2023-04-28T06:28:48.128Z,8.60
2023-04-28T06:33:39.714Z,9.20
2023-04-28T06:38:31.359Z,8.65
2023-04-28T06:43:22.943Z,9.27
2023-04-28T06:48:14.625Z,8.80
2023-04-28T06:53:06.511Z,9.70
2023-04-28T06:57:58.288Z,10.20
2023-04-28T07:02:50.054Z,10.70
2023-04-28T07:07:42.063Z,10.20
2023-04-28T07:12:33.655Z,10.40
2023-04-28T07:17:25.580Z,10.60
2023-04-28T07:22:17.792Z,11.63
2023-04-28T07:27:09.362Z,12.05
2023-04-28T07:32:08.765Z,10.70
2023-04-28T07:37:01.232Z,10.30
2023-04-28T07:41:52.924Z,11.10
2023-04-28T07:46:45.050Z,11.02
2023-04-28T07:51:36.676Z,11.25
2023-04-28T07:56:28.282Z,10.52
2023-04-28T08:01:19.922Z,10.23
2023-04-28T08:06:11.703Z,10.90
2023-04-28T08:11:03.298Z,11.65
2023-04-28T08:16:00.356Z,12.55
2023-04-28T08:20:51.996Z,12.80
2023-04-28T08:25:43.558Z,11.63
2023-04-28T08:30:35.409Z,14.30
2023-04-28T08:35:27.308Z,14.05
2023-04-28T08:40:19.184Z,15.60
2023-04-28T08:45:14.444Z,15.68
2023-04-28T08:50:08.223Z,16.40
2023-04-28T08:55:01.667Z,16.92
2023-04-28T08:59:53.776Z,17.73
2023-04-28T09:04:47.213Z,16.05
2023-04-28T09:09:40.333Z,18.60
2023-04-28T09:14:34.459Z,16.58
2023-04-28T09:19:34.452Z,17.45
2023-04-28T09:24:29.282Z,18.20
2023-04-28T09:29:20.962Z,15.75
2023-04-28T09:34:15.880Z,17.45
2023-04-28T09:39:07.716Z,16.90
2023-04-28T09:44:10.486Z,14.93
2023-04-28T09:49:02.930Z,16.58
2023-04-28T09:53:59.797Z,17.70
2023-04-28T09:58:53.136Z,17.42
2023-04-28T10:03:46.260Z,19.35
2023-04-28T10:08:40.322Z,23.27
2023-04-28T10:13:32.497Z,24.23
2023-04-28T10:18:24.962Z,21.52
2023-04-28T10:23:25.469Z,20.67
2023-04-28T10:28:17.497Z,18.15
2023-04-28T10:33:12.150Z,18.92
2023-04-28T10:38:15.096Z,16.75
2023-04-28T10:43:08.954Z,15.27
2023-04-28T10:48:04.598Z,15.90
2023-04-28T10:52:56.266Z,15.23
2023-04-28T10:57:47.805Z,16.83
2023-04-28T11:02:43.763Z,14.43
2023-04-28T11:07:36.102Z,13.90
2023-04-28T11:12:27.854Z,14.57
2023-04-28T11:17:40.613Z,15.73
2023-04-28T11:22:32.511Z,16.17
2023-04-28T11:27:29.129Z,12.85
2023-04-28T11:32:31.833Z,11.55
2023-04-28T11:37:23.614Z,10.30
2023-04-28T11:42:15.387Z,10.63
2023-04-28T11:47:07.724Z,10.20
2023-04-28T11:52:06.860Z,10.70
2023-04-28T11:56:59.381Z,11.15
2023-04-28T12:01:53.019Z,12.65
2023-04-28T12:06:44.842Z,11.68
2023-04-28T12:11:36.534Z,11.65
2023-04-28T12:16:39.389Z,11.38
2023-04-28T12:21:31.343Z,9.75
2023-04-28T12:26:26.024Z,10.65
2023-04-28T12:31:17.664Z,11.55
2023-04-28T12:36:09.285Z,11.15
2023-04-28T12:41:00.943Z,12.15
2023-04-28T12:45:53.990Z,10.27
2023-04-28T12:50:46.211Z,10.35
2023-04-28T12:55:40.941Z,9.80
2023-04-28T13:00:32.593Z,10.30
2023-04-28T13:05:24.579Z,7.47
2023-04-28T13:10:16.470Z,8.60
2023-04-28T13:15:08.796Z,8.05
2023-04-28T13:20:01.671Z,7.13
2023-04-28T13:24:53.246Z,6.90
2023-04-28T13:29:44.825Z,7.35
2023-04-28T13:34:38.172Z,6.97
2023-04-28T13:39:29.835Z,7.38
2023-04-28T13:44:21.604Z,6.25
2023-04-28T13:49:13.415Z,6.65
2023-04-28T13:54:08.302Z,8.18
2023-04-28T13:59:00.072Z,8.27
2023-04-28T14:03:51.875Z,7.50
2023-04-28T14:08:43.484Z,10.10
2023-04-28T14:13:35.849Z,11.90
2023-04-28T14:18:28.972Z,12.23
2023-04-28T14:23:21.290Z,11.65
2023-04-28T14:28:12.901Z,11.18
2023-04-28T14:33:04.628Z,11.40
2023-04-28T14:37:56.874Z,13.32
2023-04-28T14:42:49.454Z,16.70
2023-04-28T14:47:41.470Z,16.45
2023-04-28T14:52:33.696Z,18.52
2023-04-28T14:57:26.046Z,14.07
2023-04-28T15:02:18.874Z,17.17
2023-04-28T15:07:10.622Z,13.80
2023-04-28T15:12:03.179Z,11.55
2023-04-28T15:16:55.096Z,9.77
2023-04-28T15:21:46.924Z,8.07
2023-04-28T15:26:38.575Z,8.88
2023-04-28T15:31:30.235Z,9.43
2023-04-28T15:36:22.637Z,8.60
2023-04-28T15:41:15.233Z,8.02
2023-04-28T15:46:11.202Z,5.55
2023-04-28T15:51:02.917Z,6.55
2023-04-28T15:55:54.568Z,6.20
2023-04-28T16:00:46.269Z,7.15
2023-04-28T16:05:39.187Z,6.90
2023-04-28T16:10:30.844Z,6.43
2023-04-28T16:15:22.904Z,6.25
2023-04-28T16:20:15.114Z,5.50
2023-04-28T16:25:07.509Z,4.40
2023-04-28T16:29:59.759Z,4.65
2023-04-28T16:34:51.724Z,4.68
2023-04-28T16:39:43.518Z,3.80
2023-04-28T16:44:35.935Z,4.55
2023-04-28T16:49:27.747Z,3.38
2023-04-28T16:54:19.409Z,3.58
2023-04-28T16:59:11.207Z,4.18
2023-04-28T17:04:06.774Z,2.78
2023-04-28T17:08:59.768Z,1.48
2023-04-28T17:13:51.462Z,1.05
2023-04-28T17:18:43.443Z,1.70
2023-04-28T17:23:34.971Z,1.80
2023-04-28T17:28:27.999Z,1.30
2023-04-28T17:33:19.665Z,1.48
2023-04-28T17:38:11.374Z,1.20
2023-04-28T17:43:04.178Z,2.00
2023-04-28T17:48:00.713Z,2.42
2023-04-28T17:52:52.327Z,2.85
2023-04-28T17:57:44.144Z,1.75
2023-04-28T18:02:36.008Z,1.98
2023-04-28T18:07:28.048Z,2.17
2023-04-28T18:12:20.007Z,1.75
2023-04-28T18:17:11.699Z,1.55
2023-04-28T18:22:03.282Z,1.73
2023-04-28T18:26:55.043Z,1.15
2023-04-28T18:31:46.878Z,1.42
2023-04-28T18:36:38.505Z,1.92
2023-04-28T18:41:30.673Z,2.75
2023-04-28T18:46:22.330Z,2.08
2023-04-28T18:51:14.084Z,1.75
2023-04-28T18:56:05.765Z,1.63
2023-04-28T19:00:57.440Z,1.38
2023-04-28T19:05:48.998Z,1.17
2023-04-28T19:10:41.292Z,1.75
2023-04-28T19:15:35.864Z,1.30
2023-04-28T19:20:27.736Z,5.72
2023-04-28T19:25:19.308Z,1.48
2023-04-28T19:30:15.120Z,1.45
2023-04-28T19:35:07.235Z,4.43
2023-04-28T19:39:59.304Z,1.80
2023-04-28T19:44:55.676Z,2.03
2023-04-28T19:49:47.460Z,3.38
2023-04-28T19:54:39.049Z,2.75
2023-04-28T19:59:30.703Z,4.95
2023-04-28T20:04:22.616Z,3.90
2023-04-28T20:09:14.362Z,1.83
2023-04-28T20:14:06.183Z,1.90
2023-04-28T20:18:57.731Z,1.58
2023-04-28T20:23:49.389Z,1.55
2023-04-28T20:28:41.695Z,2.50
2023-04-28T20:33:33.715Z,1.25
2023-04-28T20:38:25.516Z,1.40
2023-04-28T20:43:17.326Z,1.90
2023-04-28T20:48:09.093Z,2.78
2023-04-28T20:53:01.501Z,2.40
2023-04-28T20:57:53.100Z,2.63
2023-04-28T21:02:45.601Z,3.10
2023-04-28T21:07:37.372Z,2.95
2023-04-28T21:12:28.986Z,4.03
2023-04-28T21:17:20.689Z,4.40
2023-04-28T21:22:12.596Z,4.25
2023-04-28T21:27:04.934Z,4.05
2023-04-28T21:31:56.911Z,4.53
2023-04-28T21:36:48.509Z,3.55
2023-04-28T21:41:40.130Z,4.38
2023-04-28T21:46:31.794Z,7.18
2023-04-28T21:51:23.471Z,5.07
2023-04-28T21:56:16.140Z,4.82
2023-04-28T22:01:07.967Z,5.00
2023-04-28T22:06:00.309Z,4.72
2023-04-28T22:10:52.142Z,5.13
2023-04-28T22:15:43.769Z,5.78
2023-04-28T22:20:36.099Z,6.07
2023-04-28T22:25:27.636Z,4.82
2023-04-28T22:30:19.476Z,4.82
2023-04-28T22:35:12.732Z,5.68
2023-04-28T22:40:06.779Z,6.35
2023-04-28T22:44:58.321Z,6.68
2023-04-28T22:49:50.047Z,6.70
2023-04-28T22:54:41.796Z,6.03
2023-04-28T22:59:33.385Z,6.30
2023-04-28T23:04:25.188Z,6.85
2023-04-28T23:09:16.853Z,6.20
2023-04-28T23:14:08.412Z,6.93
2023-04-28T23:18:59.983Z,6.85
2023-04-28T23:23:51.588Z,6.55
2023-04-28T23:28:43.225Z,6.70
2023-04-28T23:33:34.832Z,6.35
2023-04-28T23:38:27.059Z,8.27
2023-04-28T23:43:18.626Z,6.70
2023-04-28T23:48:11.116Z,6.35
2023-04-28T23:53:02.782Z,5.53
2023-04-28T23:57:54.520Z,6.53
